Time;durP1;ratioP1;P1;durP2;ratioP2;P2;SDS_P1;SDS_P2;PMS_P1;PMS_P2;Temp;Humidity;BMP_temperature;BMP_pressure;BME280_temperature;BME280_humidity;BME280_pressure;Samples;Min_cycle;Max_cycle;Signal;HPM_P1;HPM_P2
2022/05/21 00:00:47;;;;;;;6.57;3.70;;;23.90;99.90;;;;;;6255733;27;89254;-64
2022/05/21 00:03:49;;;;;;;4.80;3.70;;;23.90;99.90;;;;;;6259968;27;89045;-64
2022/05/21 00:06:51;;;;;;;6.60;3.83;;;23.90;99.90;;;;;;6260534;27;87091;-64
2022/05/21 00:09:54;;;;;;;7.13;3.53;;;23.90;99.90;;;;;;6246098;27;88974;-64
2022/05/21 00:12:57;;;;;;;6.38;3.88;;;23.90;99.90;;;;;;6260065;27;88487;-64
2022/05/21 00:15:59;;;;;;;5.15;3.63;;;23.90;99.90;;;;;;6261427;27;89201;-64
2022/05/21 00:19:01;;;;;;;8.75;3.97;;;23.90;99.90;;;;;;6248404;27;89093;-64
2022/05/21 00:22:03;;;;;;;5.63;3.80;;;23.90;99.90;;;;;;6257708;28;88943;-64
2022/05/21 00:25:07;;;;;;;5.40;3.60;;;24.00;99.90;;;;;;6259410;27;89095;-64
2022/05/21 00:28:10;;;;;;;7.80;3.97;;;23.90;99.90;;;;;;6260284;27;89361;-64
2022/05/21 00:31:13;;;;;;;6.18;3.72;;;23.90;99.90;;;;;;6260119;27;88959;-64
2022/05/21 00:34:15;;;;;;;6.30;3.90;;;23.90;99.90;;;;;;6259523;27;89090;-65
2022/05/21 00:37:17;;;;;;;6.25;3.70;;;23.90;99.90;;;;;;6259410;27;89311;-64
2022/05/21 00:40:21;;;;;;;7.00;3.55;;;23.90;99.90;;;;;;6258644;27;87793;-64
2022/05/21 00:43:44;;;;;;;7.72;3.60;;;24.00;99.90;;;;;;6259423;27;88317;-64
2022/05/21 00:46:47;;;;;;;5.47;3.58;;;24.00;99.90;;;;;;6259231;27;89080;-64
2022/05/21 00:49:50;;;;;;;5.97;3.92;;;24.00;99.90;;;;;;6259373;27;88893;-64
2022/05/21 00:52:53;;;;;;;5.10;3.63;;;24.00;99.90;;;;;;6258046;27;90042;-64
2022/05/21 00:55:57;;;;;;;5.97;4.18;;;24.00;99.90;;;;;;6258959;27;88041;-64
2022/05/21 01:02:25;;;;;;;6.45;3.70;;;24.00;99.90;;;;;;6258979;27;87331;-64
2022/05/21 01:05:28;;;;;;;5.57;3.63;;;24.00;99.80;;;;;;6259740;27;89127;-64
2022/05/21 01:08:30;;;;;;;5.18;3.47;;;24.00;99.80;;;;;;6256965;27;89109;-65
2022/05/21 01:11:35;;;;;;;6.07;3.72;;;24.00;99.90;;;;;;6258929;27;89044;-64
2022/05/21 01:14:39;;;;;;;5.32;3.65;;;24.10;99.90;;;;;;6258930;27;88462;-64
2022/05/21 01:17:41;;;;;;;5.80;3.80;;;24.10;99.90;;;;;;6258900;27;88792;-64
2022/05/21 01:20:47;;;;;;;9.55;3.78;;;24.10;99.90;;;;;;6258752;27;89438;-65
2022/05/21 01:23:50;;;;;;;5.18;3.78;;;24.00;99.90;;;;;;6248882;27;90149;-65
2022/05/21 01:26:52;;;;;;;9.30;4.63;;;24.10;99.90;;;;;;6258835;27;89069;-65
2022/05/21 01:29:54;;;;;;;11.43;5.07;;;24.00;99.90;;;;;;6271822;27;89115;-65
2022/05/21 01:32:57;;;;;;;10.32;4.80;;;24.00;99.90;;;;;;6259302;27;88950;-64
2022/05/21 01:35:59;;;;;;;8.23;5.05;;;23.90;99.90;;;;;;6258295;27;87922;-64
2022/05/21 01:39:03;;;;;;;8.75;5.20;;;23.90;99.90;;;;;;6258204;27;89170;-64
2022/05/21 01:42:06;;;;;;;7.88;5.32;;;23.90;99.90;;;;;;6247966;27;87849;-65
2022/05/21 01:45:08;;;;;;;7.38;4.93;;;24.00;99.90;;;;;;6246948;27;88357;-65
2022/05/21 01:48:11;;;;;;;7.68;5.63;;;24.00;99.90;;;;;;6256624;27;89033;-65
2022/05/21 01:51:13;;;;;;;9.85;5.00;;;23.90;99.90;;;;;;6258117;27;89171;-65
2022/05/21 01:54:16;;;;;;;6.38;5.18;;;24.00;99.90;;;;;;6252218;27;90000;-64
2022/05/21 01:57:18;;;;;;;7.28;5.18;;;23.90;99.90;;;;;;6257631;27;89067;-64
2022/05/21 02:00:21;;;;;;;8.90;5.18;;;24.00;99.90;;;;;;6242547;27;89105;-64
2022/05/21 02:03:23;;;;;;;9.73;5.10;;;24.00;99.90;;;;;;6247077;27;87304;-64
2022/05/21 02:06:25;;;;;;;7.32;4.93;;;24.00;99.90;;;;;;6257496;27;89357;-65
2022/05/21 02:09:28;;;;;;;10.35;5.30;;;24.00;99.90;;;;;;6245165;27;88998;-64
2022/05/21 02:12:30;;;;;;;7.22;4.97;;;24.00;99.90;;;;;;6257680;27;88361;-65
2022/05/21 02:15:32;;;;;;;7.30;4.68;;;24.00;99.90;;;;;;6249756;27;88476;-64
2022/05/21 02:18:34;;;;;;;7.03;4.70;;;24.00;99.90;;;;;;6253669;27;89079;-64
2022/05/21 02:21:38;;;;;;;8.55;4.75;;;24.00;99.90;;;;;;6257387;27;89231;-64
2022/05/21 02:24:42;;;;;;;5.82;4.78;;;24.00;99.90;;;;;;6254760;27;91332;-64
2022/05/21 02:27:44;;;;;;;7.15;4.70;;;24.00;99.90;;;;;;6256919;27;89436;-64
2022/05/21 02:30:46;;;;;;;6.68;4.70;;;24.00;99.90;;;;;;6257150;27;88979;-64
2022/05/21 02:33:48;;;;;;;7.00;5.07;;;24.00;99.90;;;;;;6257872;27;89549;-65
2022/05/21 02:40:13;;;;;;;5.93;4.82;;;24.00;99.90;;;;;;6257760;27;87191;-65
2022/05/21 02:43:15;;;;;;;8.45;5.40;;;24.10;99.90;;;;;;6256680;27;89145;-64
2022/05/21 02:46:17;;;;;;;7.32;5.40;;;24.00;99.90;;;;;;6257035;27;88276;-64
2022/05/21 02:49:19;;;;;;;8.50;4.95;;;24.00;99.90;;;;;;6256526;27;89087;-63
2022/05/21 02:52:21;;;;;;;7.95;4.97;;;24.10;99.90;;;;;;6255802;27;89074;-64
2022/05/21 02:55:24;;;;;;;5.97;4.78;;;24.00;99.90;;;;;;6255751;27;90107;-63
2022/05/21 02:58:26;;;;;;;6.15;4.65;;;24.10;99.90;;;;;;6257388;27;88935;-63
2022/05/21 03:01:28;;;;;;;6.03;4.45;;;24.00;99.90;;;;;;6256996;27;89388;-63
2022/05/21 03:04:30;;;;;;;4.95;4.45;;;24.00;99.90;;;;;;6256542;27;89070;-63
2022/05/21 03:07:36;;;;;;;4.95;4.22;;;24.00;99.90;;;;;;6256915;27;89028;-63
2022/05/21 03:10:38;;;;;;;6.13;4.70;;;24.00;99.90;;;;;;6256126;27;89117;-63
2022/05/21 03:13:40;;;;;;;6.18;4.70;;;24.00;99.90;;;;;;6256721;27;88982;-63
2022/05/21 03:16:42;;;;;;;7.32;4.68;;;24.00;99.90;;;;;;6244496;27;88362;-64
2022/05/21 03:19:44;;;;;;;7.40;4.53;;;24.00;99.90;;;;;;6244644;27;87776;-64
2022/05/21 03:22:46;;;;;;;7.38;4.78;;;24.00;99.90;;;;;;6256737;27;87673;-63
2022/05/21 03:25:50;;;;;;;7.75;4.90;;;24.00;99.90;;;;;;6255217;28;88009;-63
2022/05/21 03:28:52;;;;;;;7.43;5.00;;;24.00;99.90;;;;;;6256155;27;89068;-63
2022/05/21 03:31:54;;;;;;;6.95;4.55;;;24.00;99.90;;;;;;6255797;27;89359;-64
2022/05/21 03:34:56;;;;;;;6.72;4.65;;;24.00;99.90;;;;;;6256373;27;89212;-63
2022/05/21 03:37:58;;;;;;;5.25;4.40;;;23.90;99.90;;;;;;6256363;27;89068;-63
2022/05/21 03:41:02;;;;;;;5.57;4.10;;;24.00;99.90;;;;;;6257085;27;89095;-63
2022/05/21 03:44:04;;;;;;;5.80;4.88;;;24.00;99.90;;;;;;6255894;27;88998;-63
2022/05/21 03:47:07;;;;;;;5.22;4.32;;;23.90;99.90;;;;;;6256848;27;87481;-63
2022/05/21 03:50:10;;;;;;;5.22;4.30;;;23.90;99.90;;;;;;6256214;27;89041;-64
2022/05/21 03:53:14;;;;;;;4.45;4.05;;;24.00;99.90;;;;;;6255637;27;89003;-63
2022/05/21 03:56:18;;;;;;;6.13;4.53;;;23.90;99.90;;;;;;6255800;27;90446;-62
2022/05/21 03:59:20;;;;;;;5.07;4.57;;;24.00;99.90;;;;;;6255734;27;89038;-62
2022/05/21 04:02:22;;;;;;;5.78;4.55;;;23.90;99.90;;;;;;6255516;27;89126;-63
2022/05/21 04:05:24;;;;;;;4.57;4.07;;;24.00;99.90;;;;;;6255703;27;89401;-63
2022/05/21 04:08:26;;;;;;;6.20;4.30;;;23.90;99.90;;;;;;6255087;27;89101;-63
2022/05/21 04:11:29;;;;;;;5.05;4.35;;;23.90;99.90;;;;;;6255797;27;88858;-64
2022/05/21 04:14:31;;;;;;;5.22;4.20;;;23.90;99.90;;;;;;6253650;27;89258;-63
2022/05/21 04:17:33;;;;;;;7.35;4.78;;;24.00;99.90;;;;;;6248625;27;88356;-63
2022/05/21 04:20:36;;;;;;;6.03;4.30;;;24.00;99.90;;;;;;6255069;27;89013;-63
2022/05/21 04:23:38;;;;;;;7.05;4.60;;;24.00;99.90;;;;;;6250153;27;89089;-64
2022/05/21 04:26:41;;;;;;;6.60;4.45;;;23.90;99.90;;;;;;6242448;28;90008;-64
2022/05/21 04:29:43;;;;;;;6.03;4.72;;;23.90;99.90;;;;;;6239816;28;88942;-63
2022/05/21 04:32:46;;;;;;;4.57;4.15;;;23.90;99.90;;;;;;6259110;28;89648;-63
2022/05/21 04:39:08;;;;;;;6.18;4.68;;;23.90;99.90;;;;;;6247028;27;87300;-63
2022/05/21 04:42:11;;;;;;;5.28;4.20;;;23.90;99.90;;;;;;6238524;27;89112;-62
2022/05/21 04:45:15;;;;;;;4.82;4.32;;;23.90;99.90;;;;;;6254536;28;89124;-63
2022/05/21 04:48:17;;;;;;;5.63;4.45;;;23.90;99.90;;;;;;6260188;27;87230;-63
2022/05/21 04:51:19;;;;;;;5.22;4.63;;;23.90;99.90;;;;;;6259190;27;89145;-63
2022/05/21 04:54:21;;;;;;;5.03;4.25;;;23.90;99.90;;;;;;6258220;27;89152;-63
2022/05/21 04:57:25;;;;;;;5.40;4.70;;;23.90;99.90;;;;;;6258335;27;90308;-63
2022/05/21 05:00:28;;;;;;;4.80;4.18;;;24.00;99.90;;;;;;6259382;27;89093;-63
2022/05/21 05:03:30;;;;;;;4.97;4.13;;;24.00;99.90;;;;;;6259348;27;89131;-63
2022/05/21 05:06:32;;;;;;;5.45;4.30;;;23.90;99.90;;;;;;6247914;27;89068;-63
2022/05/21 05:09:39;;;;;;;5.68;4.50;;;24.00;99.90;;;;;;6257466;27;89133;-63
2022/05/21 05:12:43;;;;;;;5.25;4.75;;;23.90;99.90;;;;;;6258731;27;89102;-64
2022/05/21 05:15:46;;;;;;;5.93;4.75;;;23.90;99.90;;;;;;6258708;27;89050;-63
2022/05/21 05:18:48;;;;;;;4.90;4.45;;;23.90;99.90;;;;;;6259291;27;88240;-63
2022/05/21 05:21:50;;;;;;;5.00;4.28;;;23.90;99.90;;;;;;6258377;27;89088;-63
2022/05/21 05:24:52;;;;;;;5.55;4.50;;;23.90;99.90;;;;;;6258016;27;89117;-63
2022/05/21 05:27:55;;;;;;;5.00;4.40;;;23.90;99.90;;;;;;6245398;27;90004;-63
2022/05/21 05:30:57;;;;;;;4.90;4.22;;;23.90;99.90;;;;;;6253629;27;89393;-63
2022/05/21 05:33:59;;;;;;;5.47;3.95;;;23.90;99.90;;;;;;6258162;27;89002;-63
2022/05/21 05:37:02;;;;;;;5.43;4.35;;;23.80;99.90;;;;;;6257878;27;89041;-63
2022/05/21 05:40:04;;;;;;;6.32;4.20;;;23.80;99.90;;;;;;6256894;27;89105;-63
2022/05/21 05:43:08;;;;;;;4.63;3.80;;;23.80;99.90;;;;;;6254727;27;89210;-63
2022/05/21 05:46:10;;;;;;;4.90;4.18;;;23.80;99.90;;;;;;6242651;28;88000;-64
2022/05/21 05:49:12;;;;;;;4.85;4.00;;;23.80;99.90;;;;;;6256889;27;88298;-65
2022/05/21 05:52:15;;;;;;;4.28;3.85;;;23.90;99.90;;;;;;6255858;27;89085;-66
2022/05/21 05:55:17;;;;;;;5.93;3.80;;;23.80;99.90;;;;;;6254781;27;89056;-67
2022/05/21 06:01:41;;;;;;;4.38;3.97;;;23.80;99.90;;;;;;6255254;28;87950;-66
2022/05/21 06:04:43;;;;;;;5.40;3.70;;;23.80;99.90;;;;;;6255942;28;89136;-66
2022/05/21 06:07:48;;;;;;;4.22;3.70;;;23.70;99.90;;;;;;6256842;27;89091;-66
2022/05/21 06:14:48;;;;;;;6.85;3.80;;;23.70;99.90;;;;;;6253562;28;87285;-66
2022/05/21 06:17:52;;;;;;;5.53;4.18;;;23.70;99.90;;;;;;6246635;27;89026;-67
2022/05/21 06:20:54;;;;;;;4.65;4.10;;;23.70;99.90;;;;;;6240909;27;88376;-67
2022/05/21 06:23:56;;;;;;;4.60;4.10;;;23.70;99.90;;;;;;6253792;27;88030;-67
2022/05/21 06:26:57;;;;;;;4.20;3.75;;;23.60;99.90;;;;;;6256876;27;89048;-67
2022/05/21 06:30:01;;;;;;;4.57;4.10;;;23.60;99.90;;;;;;6243602;27;90021;-67
2022/05/21 06:33:13;;;;;;;4.93;3.90;;;23.70;99.90;;;;;;6256979;27;89161;-66
2022/05/21 06:36:16;;;;;;;4.95;3.72;;;23.60;99.90;;;;;;6247873;27;89929;-66
2022/05/21 06:39:18;;;;;;;5.45;4.20;;;23.60;99.90;;;;;;6254275;28;89297;-67
2022/05/21 06:42:20;;;;;;;4.60;3.90;;;23.60;99.90;;;;;;6257613;27;89376;-66
2022/05/21 06:45:24;;;;;;;4.70;3.90;;;23.70;99.90;;;;;;6248520;27;87798;-66
2022/05/21 06:48:26;;;;;;;5.85;4.22;;;23.70;99.90;;;;;;6236181;28;89534;-66
2022/05/21 06:51:28;;;;;;;5.13;3.65;;;23.70;99.90;;;;;;6257011;27;89139;-66
2022/05/21 06:54:30;;;;;;;4.32;3.92;;;23.70;99.60;;;;;;6243254;27;89417;-66
2022/05/21 06:57:32;;;;;;;5.00;3.63;;;23.60;99.90;;;;;;6256479;27;89199;-66
2022/05/21 07:00:36;;;;;;;6.50;4.15;;;23.60;99.70;;;;;;6242153;27;90052;-66
2022/05/21 07:03:38;;;;;;;4.10;3.70;;;23.60;99.60;;;;;;6256309;27;88043;-65
2022/05/21 07:10:00;;;;;;;4.20;3.80;;;23.70;99.60;;;;;;6256878;28;87156;-66
2022/05/21 07:13:01;;;;;;;4.28;3.88;;;23.70;99.60;;;;;;6256082;27;89084;-66
2022/05/21 07:16:05;;;;;;;5.30;3.60;;;23.70;99.60;;;;;;6256688;27;88242;-66
2022/05/21 07:19:07;;;;;;;4.97;3.70;;;23.70;99.50;;;;;;6256609;27;89018;-67
2022/05/21 07:22:09;;;;;;;4.22;3.80;;;23.70;99.30;;;;;;6257202;27;88413;-67
2022/05/21 07:25:14;;;;;;;4.00;3.60;;;23.70;99.30;;;;;;6256342;27;89129;-67
2022/05/21 07:28:17;;;;;;;3.80;3.50;;;23.70;99.60;;;;;;6255849;27;89311;-66
2022/05/21 07:31:20;;;;;;;3.85;3.45;;;23.70;99.00;;;;;;6255992;27;90060;-66
2022/05/21 07:34:22;;;;;;;3.95;3.58;;;23.70;99.00;;;;;;6256210;27;87953;-66
2022/05/21 07:37:24;;;;;;;3.85;3.45;;;23.70;99.00;;;;;;6255933;27;89438;-66
2022/05/21 07:40:26;;;;;;;4.30;3.53;;;23.70;98.80;;;;;;6255405;27;89047;-67
2022/05/21 07:43:30;;;;;;;3.90;3.53;;;23.70;98.60;;;;;;6255896;27;89216;-66
2022/05/21 07:46:34;;;;;;;3.95;3.50;;;23.70;98.10;;;;;;6255500;27;89077;-66
2022/05/21 07:49:36;;;;;;;3.90;3.30;;;23.70;97.70;;;;;;6243159;27;88123;-67
2022/05/21 07:52:38;;;;;;;3.50;3.20;;;23.70;97.50;;;;;;6251461;27;88298;-67
2022/05/21 07:55:44;;;;;;;3.83;3.25;;;23.70;96.90;;;;;;6255760;27;87910;-66
2022/05/21 07:58:46;;;;;;;4.70;3.42;;;23.70;96.20;;;;;;6255873;27;88982;-66
2022/05/21 08:01:49;;;;;;;3.83;3.13;;;23.70;96.60;;;;;;6254920;27;89973;-66
2022/05/21 08:04:51;;;;;;;4.72;3.35;;;23.70;96.80;;;;;;6251703;27;89043;-67
2022/05/21 08:07:53;;;;;;;3.38;3.00;;;23.70;96.60;;;;;;6260274;27;89077;-66
2022/05/21 08:10:55;;;;;;;5.10;3.50;;;23.70;96.90;;;;;;6259689;27;89021;-66
2022/05/21 08:13:57;;;;;;;4.20;3.22;;;23.70;96.60;;;;;;6247418;28;89133;-67
2022/05/21 08:17:01;;;;;;;3.65;3.10;;;23.70;96.80;;;;;;6259938;27;89847;-66
2022/05/21 08:20:04;;;;;;;4.10;3.08;;;23.70;96.80;;;;;;6259558;27;88963;-67
2022/05/21 08:29:46;;;;;;;4.05;2.80;;;23.70;96.90;;;;;;6246660;28;88185;-66
2022/05/21 08:32:49;;;;;;;3.90;3.15;;;23.70;97.20;;;;;;6249009;27;89245;-66
2022/05/21 08:35:51;;;;;;;4.05;3.65;;;23.70;97.10;;;;;;6256692;28;88912;-66
2022/05/21 08:38:53;;;;;;;3.85;3.20;;;23.70;96.10;;;;;;6259248;27;89045;-66
2022/05/21 08:41:58;;;;;;;4.25;3.22;;;23.70;96.70;;;;;;6258573;27;89068;-67
2022/05/21 08:45:12;;;;;;;3.50;3.20;;;23.70;97.20;;;;;;6258443;27;89264;-66
2022/05/21 08:48:18;;;;;;;3.45;2.92;;;23.70;97.20;;;;;;6251924;27;89372;-66
2022/05/21 08:51:22;;;;;;;3.63;3.00;;;23.70;97.30;;;;;;6243565;27;89472;-65
2022/05/21 08:54:26;;;;;;;3.25;2.97;;;23.80;97.30;;;;;;6250271;28;88517;-66
2022/05/21 08:57:40;;;;;;;2.88;2.67;;;23.80;97.20;;;;;;6253983;27;89061;-65
2022/05/21 09:00:44;;;;;;;4.25;3.10;;;23.70;97.20;;;;;;6259121;27;89373;-65
2022/05/21 09:03:48;;;;;;;3.15;2.85;;;23.80;97.20;;;;;;6245356;27;90029;-65
2022/05/21 09:06:55;;;;;;;4.50;3.33;;;23.80;96.90;;;;;;6246257;28;89154;-66
2022/05/21 09:10:11;;;;;;;5.82;4.90;;;23.90;96.60;;;;;;6259162;27;89290;-65
2022/05/21 09:13:20;;;;;;;7.15;5.38;;;23.90;96.30;;;;;;6258591;27;89469;-65
2022/05/21 09:19:52;;;;;;;5.95;4.00;;;23.90;95.80;;;;;;6256087;27;87182;-66
2022/05/21 09:22:57;;;;;;;5.80;3.70;;;23.90;96.50;;;;;;6258802;28;89534;-65
2022/05/21 09:26:08;;;;;;;4.43;3.17;;;24.10;95.90;;;;;;6251327;28;88472;-63
2022/05/21 09:29:16;;;;;;;4.38;3.20;;;24.40;94.30;;;;;;6254583;27;89046;-65
2022/05/21 09:32:21;;;;;;;4.68;3.30;;;24.70;93.20;;;;;;6253959;27;89288;-66
2022/05/21 09:35:26;;;;;;;3.92;3.22;;;24.80;92.50;;;;;;6257672;27;89203;-67
2022/05/21 09:38:30;;;;;;;3.55;3.20;;;24.80;92.10;;;;;;6244531;27;89029;-67
2022/05/21 09:41:33;;;;;;;4.97;3.10;;;24.80;92.00;;;;;;6258038;27;89161;-67
2022/05/21 09:48:15;;;;;;;2.80;2.60;;;24.60;92.10;;;;;;6248244;28;88086;-66
2022/05/21 09:51:29;;;;;;;3.20;2.90;;;24.60;92.40;;;;;;6246567;28;89129;-67
2022/05/21 09:54:35;;;;;;;3.40;3.10;;;24.50;92.60;;;;;;6258461;27;89151;-67
2022/05/21 09:57:42;;;;;;;3.30;3.00;;;24.50;92.70;;;;;;6258883;27;88790;-66
2022/05/21 10:00:54;;;;;;;3.42;3.10;;;24.50;92.80;;;;;;6254821;27;89088;-67
2022/05/21 10:03:56;;;;;;;3.30;3.00;;;24.50;93.00;;;;;;6245407;28;88781;-67
2022/05/21 10:07:04;;;;;;;4.68;3.05;;;24.50;93.10;;;;;;6234573;27;88785;-67
2022/05/21 10:13:40;;;;;;;2.92;2.60;;;24.40;93.20;;;;;;6258202;27;88287;-67
2022/05/21 10:16:46;;;;;;;3.40;2.92;;;24.50;93.20;;;;;;6257844;27;89214;-67
2022/05/21 10:19:55;;;;;;;3.25;2.72;;;24.40;93.20;;;;;;6246922;27;89196;-67
2022/05/21 10:23:05;;;;;;;3.20;2.85;;;24.40;93.30;;;;;;6256246;28;88993;-66
2022/05/21 10:26:27;;;;;;;3.60;2.90;;;24.40;93.30;;;;;;6256220;27;89150;-67
2022/05/21 10:29:46;;;;;;;3.05;2.75;;;24.40;93.30;;;;;;6258033;27;88461;-67
2022/05/21 10:33:08;;;;;;;3.15;2.67;;;24.40;93.30;;;;;;6246640;28;89064;-67
2022/05/21 10:36:22;;;;;;;3.40;2.63;;;24.40;93.30;;;;;;6232219;28;89227;-66
2022/05/21 10:40:09;;;;;;;3.13;2.50;;;24.40;93.30;;;;;;6244126;27;90182;-66
2022/05/21 10:43:35;;;;;;;3.17;2.85;;;24.30;93.30;;;;;;6256918;27;89241;-66
2022/05/21 10:46:46;;;;;;;2.75;2.45;;;24.30;93.80;;;;;;6257145;27;89427;-66
2022/05/21 10:50:19;;;;;;;2.95;2.65;;;24.30;93.40;;;;;;6256654;27;88946;-67
2022/05/21 10:53:50;;;;;;;3.53;2.60;;;24.30;93.40;;;;;;6257661;27;89397;-67
2022/05/21 10:57:05;;;;;;;2.90;2.60;;;24.30;93.30;;;;;;6257063;27;89194;-66
2022/05/21 11:00:09;;;;;;;3.03;2.72;;;24.30;93.40;;;;;;6257163;27;89182;-67
2022/05/21 11:03:29;;;;;;;3.13;2.83;;;24.30;93.30;;;;;;6247186;27;88431;-67
2022/05/21 11:06:56;;;;;;;2.72;2.53;;;24.30;93.30;;;;;;6256481;28;89048;-66
2022/05/21 11:10:06;;;;;;;2.70;2.50;;;24.30;93.30;;;;;;6244924;28;89049;-67
2022/05/21 11:13:16;;;;;;;2.80;2.50;;;24.30;93.30;;;;;;6232754;28;90077;-67
2022/05/21 11:16:25;;;;;;;3.30;2.80;;;24.30;93.30;;;;;;6248633;28;89043;-66
2022/05/21 11:19:37;;;;;;;2.45;2.25;;;24.30;93.30;;;;;;6244305;28;89034;-67
2022/05/21 11:22:45;;;;;;;3.10;2.65;;;24.30;93.30;;;;;;6247561;28;89402;-67
2022/05/21 11:25:51;;;;;;;3.40;2.40;;;24.30;93.30;;;;;;6256212;27;87940;-67
2022/05/21 11:29:00;;;;;;;2.50;2.30;;;24.30;93.30;;;;;;6256204;27;89056;-67
2022/05/21 11:38:49;;;;;;;3.42;2.70;;;24.30;93.20;;;;;;6246939;27;87306;-67
2022/05/21 11:42:12;;;;;;;3.72;2.50;;;24.30;93.20;;;;;;6254969;27;89133;-67
2022/05/21 11:45:23;;;;;;;4.25;2.80;;;24.30;93.20;;;;;;6258918;27;89930;-67
2022/05/21 11:48:28;;;;;;;3.45;2.50;;;24.30;93.10;;;;;;6259987;27;89017;-67
2022/05/21 11:51:34;;;;;;;3.15;2.85;;;24.30;93.10;;;;;;6260415;27;89048;-67
2022/05/21 11:55:01;;;;;;;3.25;2.60;;;24.30;93.00;;;;;;6260278;27;89180;-67
2022/05/21 11:58:05;;;;;;;5.20;2.85;;;24.30;93.00;;;;;;6247475;27;89460;-67
2022/05/21 12:01:08;;;;;;;3.20;2.88;;;24.30;93.00;;;;;;6257623;27;89129;-67
2022/05/21 12:04:25;;;;;;;3.10;2.80;;;24.30;93.00;;;;;;6260177;27;89087;-67
2022/05/21 12:07:53;;;;;;;3.53;2.67;;;24.30;93.00;;;;;;6248118;27;88414;-67
2022/05/21 12:10:57;;;;;;;3.20;2.90;;;24.30;92.90;;;;;;6260062;27;88849;-67
2022/05/21 12:14:05;;;;;;;3.03;2.80;;;24.30;92.90;;;;;;6260411;28;88249;-66
2022/05/21 12:17:43;;;;;;;3.25;2.95;;;24.30;92.80;;;;;;6259888;27;87871;-67
2022/05/21 12:20:47;;;;;;;3.40;3.00;;;24.30;93.20;;;;;;6259785;27;89099;-67
2022/05/21 12:24:07;;;;;;;3.95;2.97;;;24.20;93.10;;;;;;6255068;28;87767;-67
2022/05/21 12:27:21;;;;;;;4.32;3.40;;;24.30;92.70;;;;;;6260087;27;89021;-66
2022/05/21 12:30:29;;;;;;;3.72;3.20;;;24.20;92.60;;;;;;6259485;27;89132;-67
2022/05/21 12:33:41;;;;;;;4.45;3.20;;;24.30;92.60;;;;;;6246126;27;89159;-67
2022/05/21 12:36:55;;;;;;;3.25;2.95;;;24.30;92.60;;;;;;6259619;27;89278;-67
2022/05/21 12:40:11;;;;;;;4.18;3.28;;;24.30;92.60;;;;;;6259185;27;87208;-66
2022/05/21 12:43:15;;;;;;;4.10;3.35;;;24.20;93.10;;;;;;6238657;27;89049;-66
2022/05/21 12:46:24;;;;;;;3.97;3.28;;;24.30;93.60;;;;;;6245082;27;88881;-66
2022/05/21 12:49:28;;;;;;;3.88;3.28;;;24.30;93.30;;;;;;6251100;27;89977;-66
2022/05/21 12:52:37;;;;;;;4.68;3.50;;;24.30;93.10;;;;;;6254424;27;89027;-67
2022/05/21 12:55:39;;;;;;;5.63;3.33;;;24.30;93.00;;;;;;6253683;27;89433;-66
2022/05/21 12:58:41;;;;;;;4.03;3.35;;;24.30;93.00;;;;;;6254079;27;89102;-66
2022/05/21 13:01:57;;;;;;;3.50;3.20;;;24.30;93.10;;;;;;6254171;27;89299;-66
2022/05/21 13:05:01;;;;;;;3.60;3.17;;;24.30;93.10;;;;;;6252707;28;89120;-66
2022/05/21 13:08:05;;;;;;;4.45;3.40;;;24.30;93.10;;;;;;6253929;27;89258;-66
2022/05/21 13:11:16;;;;;;;4.57;3.42;;;24.30;93.20;;;;;;6254040;28;88527;-67
2022/05/21 13:14:24;;;;;;;4.75;3.20;;;24.30;93.40;;;;;;6252827;27;88888;-67
2022/05/21 13:17:36;;;;;;;3.83;3.08;;;24.30;93.60;;;;;;6256060;27;89025;-66
2022/05/21 13:20:49;;;;;;;4.72;3.20;;;24.30;93.60;;;;;;6258080;27;89979;-67
2022/05/21 13:24:21;;;;;;;3.13;2.83;;;24.30;93.60;;;;;;6254295;28;89055;-67
2022/05/21 13:27:24;;;;;;;3.65;3.08;;;24.30;93.60;;;;;;6241490;27;89066;-67
2022/05/21 13:30:32;;;;;;;3.25;2.90;;;24.30;93.50;;;;;;6254757;27;89298;-67
2022/05/21 13:33:36;;;;;;;4.25;2.97;;;24.30;93.40;;;;;;6258555;27;89192;-67
2022/05/21 13:36:40;;;;;;;4.35;3.20;;;24.30;93.40;;;;;;6245731;27;87919;-66
2022/05/21 13:39:42;;;;;;;3.95;3.20;;;24.30;93.30;;;;;;6246137;27;89050;-67
2022/05/21 13:42:46;;;;;;;3.95;2.83;;;24.30;93.30;;;;;;6259581;27;87203;-67
2022/05/21 13:45:54;;;;;;;3.85;3.08;;;24.30;93.20;;;;;;6241108;28;89080;-66
2022/05/21 13:49:01;;;;;;;3.95;2.85;;;24.30;93.20;;;;;;6234084;28;89128;-66
2022/05/21 13:52:07;;;;;;;3.28;2.97;;;24.30;93.10;;;;;;6246705;28;90347;-67
2022/05/21 13:55:12;;;;;;;5.00;2.90;;;24.30;93.10;;;;;;6256440;28;89139;-67
2022/05/21 13:58:16;;;;;;;3.55;2.95;;;24.30;93.00;;;;;;6258374;27;89447;-67
2022/05/21 14:01:25;;;;;;;4.10;2.88;;;24.30;92.90;;;;;;6252987;27;88757;-66
2022/05/21 14:04:34;;;;;;;3.00;2.70;;;24.30;92.90;;;;;;6258083;27;88693;-66
2022/05/21 14:07:52;;;;;;;2.92;2.63;;;24.30;92.80;;;;;;6244385;28;89133;-67
2022/05/21 14:10:59;;;;;;;3.42;2.78;;;24.30;92.70;;;;;;6258095;28;88145;-67
2022/05/21 14:14:04;;;;;;;3.28;2.88;;;24.30;92.70;;;;;;6245554;27;88317;-66
2022/05/21 14:17:20;;;;;;;3.10;2.78;;;24.30;92.60;;;;;;6244843;27;89085;-67
2022/05/21 14:20:27;;;;;;;3.38;2.72;;;24.30;92.60;;;;;;6257513;27;89152;-67
2022/05/21 14:23:33;;;;;;;2.78;2.38;;;24.30;92.60;;;;;;6256805;27;88852;-66
2022/05/21 14:26:35;;;;;;;2.97;2.67;;;24.30;92.50;;;;;;6257918;27;87963;-67
2022/05/21 14:29:43;;;;;;;3.15;2.47;;;24.30;92.40;;;;;;6256917;27;89021;-66
2022/05/21 14:32:45;;;;;;;3.83;2.50;;;24.30;92.40;;;;;;6257712;27;89015;-68
2022/05/21 14:35:48;;;;;;;3.50;2.47;;;24.30;92.30;;;;;;6257403;27;88954;-67
2022/05/21 14:38:51;;;;;;;2.70;2.45;;;24.30;92.30;;;;;;6256861;27;89115;-67
2022/05/21 14:42:00;;;;;;;3.78;2.58;;;24.30;92.30;;;;;;6257343;27;89021;-67
2022/05/21 14:45:03;;;;;;;3.50;2.38;;;24.30;92.20;;;;;;6252502;27;88308;-67
2022/05/21 14:48:06;;;;;;;3.38;2.60;;;24.30;92.10;;;;;;6250449;27;89357;-68
2022/05/21 14:54:30;;;;;;;2.20;2.00;;;24.30;90.70;;;;;;6251872;28;88237;-68
2022/05/21 14:57:32;;;;;;;3.58;2.15;;;24.30;90.00;;;;;;6253322;27;89053;-68
2022/05/21 15:00:35;;;;;;;3.13;1.98;;;24.30;88.40;;;;;;6253707;27;89107;-67
2022/05/21 15:03:37;;;;;;;1.80;1.70;;;24.30;87.20;;;;;;6252525;27;89151;-67
2022/05/21 15:06:41;;;;;;;3.72;1.65;;;24.30;84.30;;;;;;6249180;27;89072;-67
2022/05/21 15:09:44;;;;;;;3.92;2.13;;;24.30;83.30;;;;;;6227324;28;89044;-67
2022/05/21 15:12:47;;;;;;;1.83;1.65;;;24.30;82.70;;;;;;6249311;27;89121;-66
2022/05/21 15:15:49;;;;;;;2.55;1.73;;;24.30;81.80;;;;;;6251182;27;88598;-66
2022/05/21 15:18:51;;;;;;;3.25;1.60;;;24.30;81.60;;;;;;6249660;27;89028;-67
2022/05/21 15:21:57;;;;;;;3.50;1.38;;;24.30;82.00;;;;;;6252583;27;87942;-66
2022/05/21 15:25:04;;;;;;;1.80;1.30;;;24.30;82.30;;;;;;6250288;27;89922;-66
2022/05/21 15:28:06;;;;;;;2.35;1.42;;;24.30;82.40;;;;;;6252747;27;89331;-66
2022/05/21 15:31:10;;;;;;;1.65;1.50;;;24.30;83.00;;;;;;6242759;27;89208;-66
2022/05/21 15:34:12;;;;;;;1.58;1.48;;;24.30;82.90;;;;;;6251324;27;89298;-67
2022/05/21 15:37:14;;;;;;;1.50;1.40;;;24.30;83.30;;;;;;6250026;27;89277;-68
2022/05/21 15:40:17;;;;;;;1.70;1.48;;;24.30;82.00;;;;;;6249134;27;89508;-67
2022/05/21 15:43:20;;;;;;;5.35;1.67;;;24.20;82.30;;;;;;6256931;27;89083;-67
2022/05/21 15:46:24;;;;;;;3.38;1.30;;;24.20;81.60;;;;;;6244457;27;88266;-67
2022/05/21 15:49:26;;;;;;;1.40;1.30;;;24.30;81.80;;;;;;6242756;27;89169;-67
2022/05/21 15:52:32;;;;;;;2.20;1.27;;;24.20;81.70;;;;;;6256036;27;89055;-67
2022/05/21 15:55:36;;;;;;;2.22;1.33;;;24.30;82.20;;;;;;6256419;27;90304;-67
2022/05/21 15:58:38;;;;;;;2.53;1.42;;;24.30;82.50;;;;;;6242863;28;89125;-68
2022/05/21 16:01:40;;;;;;;1.75;1.30;;;24.30;82.00;;;;;;6245882;27;89245;-67
2022/05/21 16:04:42;;;;;;;1.38;1.20;;;24.20;81.70;;;;;;6240372;28;89421;-68
2022/05/21 16:07:45;;;;;;;1.65;1.30;;;24.30;82.00;;;;;;6242542;27;89090;-67
2022/05/21 16:10:50;;;;;;;1.70;1.20;;;24.30;82.20;;;;;;6256227;27;89015;-68
2022/05/21 16:13:53;;;;;;;2.00;1.40;;;24.30;82.30;;;;;;6242766;27;89024;-68
2022/05/21 16:16:55;;;;;;;2.65;1.30;;;24.30;82.50;;;;;;6243304;28;88449;-67
2022/05/21 16:19:57;;;;;;;2.05;1.30;;;24.30;82.50;;;;;;6242805;27;89004;-68
2022/05/21 16:22:59;;;;;;;2.03;1.50;;;24.20;82.10;;;;;;6255397;27;88947;-67
2022/05/21 16:26:02;;;;;;;2.05;1.50;;;24.30;82.20;;;;;;6259034;27;88857;-68
2022/05/21 16:29:05;;;;;;;2.25;1.45;;;24.20;81.90;;;;;;6252374;27;89181;-67
2022/05/21 16:32:08;;;;;;;3.65;1.48;;;24.30;82.00;;;;;;6257962;27;89082;-67
2022/05/21 16:35:10;;;;;;;3.22;1.60;;;24.30;82.30;;;;;;6256844;27;89055;-68
2022/05/21 16:38:12;;;;;;;4.30;1.73;;;24.30;82.80;;;;;;6257329;27;89018;-69
2022/05/21 16:41:16;;;;;;;5.85;1.60;;;24.30;82.70;;;;;;6258732;27;89192;-69
2022/05/21 16:44:18;;;;;;;5.72;1.50;;;24.30;82.80;;;;;;6257012;28;89407;-70
2022/05/21 16:47:20;;;;;;;5.35;1.73;;;24.30;82.50;;;;;;6259156;27;87233;-69
2022/05/21 16:50:23;;;;;;;5.43;1.63;;;24.30;82.60;;;;;;6258133;27;88018;-70